createdAt,value
2023-04-30T00:00:08.184Z,12.67
2023-04-30T00:02:38.668Z,12.69
2023-04-30T00:05:06.273Z,12.72
2023-04-30T00:07:35.257Z,12.74
2023-04-30T00:10:03.276Z,12.70
2023-04-30T00:12:31.782Z,12.72
2023-04-30T00:15:01.678Z,12.70
2023-04-30T00:17:32.142Z,12.69
2023-04-30T00:19:59.924Z,12.66
2023-04-30T00:22:27.261Z,12.66
2023-04-30T00:24:55.568Z,12.47
2023-04-30T00:27:22.870Z,12.38
2023-04-30T00:29:50.758Z,12.28
2023-04-30T00:32:18.065Z,12.29
2023-04-30T00:34:46.115Z,12.28
2023-04-30T00:37:13.619Z,12.32
2023-04-30T00:39:41.109Z,12.30
2023-04-30T00:42:08.508Z,12.24
2023-04-30T00:44:36.003Z,12.17
2023-04-30T00:47:03.254Z,12.06
2023-04-30T00:49:30.956Z,12.13
2023-04-30T00:51:58.207Z,12.11
2023-04-30T00:54:25.574Z,12.16
2023-04-30T00:56:53.213Z,12.07
2023-04-30T00:59:21.152Z,12.00
2023-04-30T01:01:48.729Z,11.99
2023-04-30T01:04:16.205Z,11.96
2023-04-30T01:06:43.730Z,11.98
2023-04-30T01:09:12.732Z,12.03
2023-04-30T01:11:48.314Z,11.96
2023-04-30T01:14:25.523Z,12.00
2023-04-30T01:17:14.888Z,12.05
2023-04-30T01:19:43.307Z,11.96
2023-04-30T01:22:30.917Z,11.96
2023-04-30T01:25:06.884Z,11.81
2023-04-30T01:27:44.176Z,11.86
2023-04-30T01:30:19.463Z,11.70
2023-04-30T01:32:56.349Z,11.72
2023-04-30T01:35:51.577Z,11.65
2023-04-30T01:38:42.274Z,11.61
2023-04-30T01:41:28.942Z,11.55
2023-04-30T01:44:28.294Z,11.65
2023-04-30T01:47:15.324Z,11.62
2023-04-30T01:49:42.803Z,11.58
2023-04-30T01:52:17.998Z,11.59
2023-04-30T01:57:41.664Z,11.51
2023-04-30T02:00:18.249Z,11.52
2023-04-30T02:02:47.008Z,11.52
2023-04-30T02:05:22.721Z,11.53
2023-04-30T02:07:54.462Z,11.56
2023-04-30T02:10:38.665Z,11.67
2023-04-30T02:13:09.010Z,11.69
2023-04-30T02:15:36.522Z,11.64
2023-04-30T02:18:04.156Z,11.62
2023-04-30T02:20:33.318Z,11.70
2023-04-30T02:23:10.016Z,11.73
2023-04-30T02:25:41.078Z,11.69
2023-04-30T02:28:08.774Z,11.68
2023-04-30T02:30:37.323Z,11.73
2023-04-30T02:33:05.416Z,11.72
2023-04-30T02:35:32.986Z,11.76
2023-04-30T02:38:00.468Z,11.67
2023-04-30T02:40:28.179Z,11.71
2023-04-30T02:42:56.881Z,11.75
2023-04-30T02:45:24.482Z,11.70
2023-04-30T02:47:54.287Z,11.60
2023-04-30T02:50:25.286Z,11.54
2023-04-30T02:52:56.394Z,11.51
2023-04-30T02:55:24.247Z,11.48
2023-04-30T02:57:55.277Z,11.44
2023-04-30T03:00:25.256Z,11.53
2023-04-30T03:02:57.980Z,11.43
2023-04-30T03:05:27.887Z,11.47
2023-04-30T03:07:56.150Z,11.43
2023-04-30T03:10:27.407Z,11.38
2023-04-30T03:12:55.012Z,11.34
2023-04-30T03:15:25.647Z,11.19
2023-04-30T03:17:53.272Z,11.26
2023-04-30T03:20:20.939Z,11.26
2023-04-30T03:22:48.357Z,11.22
2023-04-30T03:25:23.703Z,11.08
2023-04-30T03:27:51.320Z,10.98
2023-04-30T03:30:22.461Z,10.98
2023-04-30T03:32:56.370Z,11.06
2023-04-30T03:35:24.285Z,11.03
2023-04-30T03:37:54.964Z,11.00
2023-04-30T03:40:25.529Z,10.98
2023-04-30T03:42:58.951Z,11.00
2023-04-30T03:45:29.434Z,10.98
2023-04-30T03:47:57.213Z,11.01
2023-04-30T03:50:24.735Z,11.03
2023-04-30T03:52:52.464Z,10.99
2023-04-30T03:55:20.069Z,11.06
2023-04-30T03:57:47.683Z,11.11
2023-04-30T04:00:15.805Z,11.02
2023-04-30T04:02:50.459Z,11.02
2023-04-30T04:05:18.653Z,10.91
2023-04-30T04:07:46.855Z,10.86
2023-04-30T04:10:17.013Z,10.77
2023-04-30T04:12:44.814Z,10.86
2023-04-30T04:15:13.774Z,10.86
2023-04-30T04:17:41.648Z,10.85
2023-04-30T04:20:14.598Z,10.95
2023-04-30T04:23:01.999Z,10.89
2023-04-30T04:25:33.722Z,10.81
2023-04-30T04:28:04.485Z,10.86
2023-04-30T04:30:35.343Z,10.89
2023-04-30T04:33:03.441Z,10.99
2023-04-30T04:35:33.308Z,10.99
2023-04-30T04:38:01.732Z,11.13
2023-04-30T04:40:31.760Z,11.17
2023-04-30T04:43:01.853Z,11.24
2023-04-30T04:45:34.131Z,11.30
2023-04-30T04:48:04.706Z,11.39
2023-04-30T04:50:38.595Z,11.51
2023-04-30T04:53:06.022Z,11.51
2023-04-30T04:55:34.963Z,11.58
2023-04-30T04:58:02.620Z,11.68
2023-04-30T05:00:33.971Z,11.76
2023-04-30T05:03:01.691Z,11.81
2023-04-30T05:05:29.857Z,11.95
2023-04-30T05:07:57.400Z,12.05
2023-04-30T05:10:25.048Z,12.16
2023-04-30T05:12:52.615Z,12.23
2023-04-30T05:15:20.260Z,12.31
2023-04-30T05:17:47.678Z,12.38
2023-04-30T05:20:15.250Z,12.46
2023-04-30T05:22:42.926Z,12.54
2023-04-30T05:25:10.718Z,12.57
2023-04-30T05:27:38.411Z,12.66
2023-04-30T05:30:06.974Z,12.65
2023-04-30T05:32:35.298Z,12.65
2023-04-30T05:35:02.922Z,12.68
2023-04-30T05:37:30.516Z,12.70
2023-04-30T05:40:00.417Z,12.73
2023-04-30T05:42:27.846Z,12.75
2023-04-30T05:44:55.786Z,12.80
2023-04-30T05:47:23.916Z,12.83
2023-04-30T05:49:51.494Z,12.81
2023-04-30T05:52:20.186Z,12.91
2023-04-30T05:54:50.076Z,12.93
2023-04-30T05:57:19.670Z,12.99
2023-04-30T05:59:48.733Z,13.04
2023-04-30T06:02:16.284Z,13.05
2023-04-30T06:04:43.676Z,13.12
2023-04-30T06:07:51.839Z,13.18
2023-04-30T06:10:19.376Z,13.26
2023-04-30T06:12:49.086Z,13.31
2023-04-30T06:15:16.542Z,13.40
2023-04-30T06:17:43.961Z,13.47
2023-04-30T06:20:11.617Z,13.52
2023-04-30T06:22:41.196Z,13.61
2023-04-30T06:25:08.997Z,13.61
2023-04-30T06:27:36.300Z,13.65
2023-04-30T06:30:03.824Z,13.75
2023-04-30T06:32:32.441Z,13.84
2023-04-30T06:34:59.785Z,13.82
2023-04-30T06:37:27.085Z,13.81
2023-04-30T06:39:54.633Z,13.75
2023-04-30T06:42:22.139Z,13.78
2023-04-30T06:44:49.382Z,13.84
2023-04-30T06:47:16.998Z,13.96
2023-04-30T06:49:44.309Z,14.04
2023-04-30T06:52:13.990Z,14.06
2023-04-30T06:54:43.057Z,14.15
2023-04-30T06:57:21.112Z,14.22
2023-04-30T06:59:48.680Z,14.36
2023-04-30T07:02:16.188Z,14.46
2023-04-30T07:04:43.612Z,14.58
2023-04-30T07:07:10.906Z,14.70
2023-04-30T07:09:38.236Z,14.81
2023-04-30T07:12:05.531Z,14.97
2023-04-30T07:14:33.044Z,15.11
2023-04-30T07:17:00.989Z,15.16
2023-04-30T07:19:29.392Z,15.17
2023-04-30T07:21:56.804Z,15.21
2023-04-30T07:24:24.178Z,15.30
2023-04-30T07:26:51.719Z,15.39
2023-04-30T07:29:19.520Z,15.49
2023-04-30T07:31:46.891Z,15.60
2023-04-30T07:34:14.383Z,15.75
2023-04-30T07:36:41.762Z,15.83
2023-04-30T07:39:11.862Z,15.97
2023-04-30T07:41:39.377Z,15.95
2023-04-30T07:44:06.779Z,16.05
2023-04-30T07:46:34.193Z,16.16
2023-04-30T07:49:02.144Z,16.27
2023-04-30T07:51:29.583Z,16.29
2023-04-30T07:53:56.956Z,16.42
2023-04-30T07:56:24.719Z,16.60
2023-04-30T07:58:52.382Z,16.77
2023-04-30T08:01:19.782Z,16.87
2023-04-30T08:03:47.195Z,17.01
2023-04-30T08:06:14.804Z,17.14
2023-04-30T08:08:43.268Z,17.12
2023-04-30T08:11:11.254Z,17.12
2023-04-30T08:13:38.664Z,17.14
2023-04-30T08:16:06.320Z,17.17
2023-04-30T08:18:34.847Z,17.34
2023-04-30T08:21:02.318Z,17.42
2023-04-30T08:23:29.779Z,17.41
2023-04-30T08:25:57.319Z,17.53
2023-04-30T08:28:24.629Z,17.76
2023-04-30T08:30:52.041Z,17.83
2023-04-30T08:33:19.337Z,18.14
2023-04-30T08:35:46.821Z,18.15
2023-04-30T08:38:14.353Z,18.21
2023-04-30T08:40:51.776Z,18.08
2023-04-30T08:43:20.431Z,17.92
2023-04-30T08:45:48.442Z,17.98
2023-04-30T08:48:16.645Z,17.85
2023-04-30T08:50:44.205Z,18.11
2023-04-30T08:53:13.267Z,18.27
2023-04-30T08:55:41.241Z,18.31
2023-04-30T08:58:10.966Z,18.31
2023-04-30T09:00:39.537Z,18.54
2023-04-30T09:03:08.888Z,18.55
2023-04-30T09:05:37.430Z,18.61
2023-04-30T09:08:05.044Z,18.77
2023-04-30T09:10:34.642Z,19.02
2023-04-30T09:13:08.270Z,19.14
2023-04-30T09:15:36.972Z,18.95
2023-04-30T09:18:12.563Z,18.94
2023-04-30T09:21:00.352Z,18.83
2023-04-30T09:23:29.205Z,19.08
2023-04-30T09:26:00.776Z,19.12
2023-04-30T09:28:29.814Z,18.91
2023-04-30T09:30:57.832Z,18.91
2023-04-30T09:33:25.449Z,18.83
2023-04-30T09:35:53.055Z,18.90
2023-04-30T09:38:26.649Z,19.03
2023-04-30T09:40:55.201Z,18.86
2023-04-30T09:43:23.604Z,19.05
2023-04-30T09:45:55.167Z,19.12
2023-04-30T09:48:24.391Z,19.11
2023-04-30T09:50:52.248Z,19.03
2023-04-30T09:53:20.417Z,19.04
2023-04-30T09:55:51.607Z,19.01
2023-04-30T09:58:19.625Z,19.04
2023-04-30T10:04:45.987Z,19.38
2023-04-30T10:11:38.927Z,19.57
2023-04-30T10:14:57.230Z,19.74
2023-04-30T10:38:49.118Z,20.26
2023-04-30T10:41:19.845Z,20.36
2023-04-30T10:44:15.135Z,20.58
2023-04-30T10:53:41.327Z,20.79
2023-04-30T10:56:33.110Z,21.08
2023-04-30T11:07:58.616Z,22.27
2023-04-30T11:14:01.995Z,22.95
2023-04-30T11:16:34.885Z,22.81
2023-04-30T11:19:08.591Z,22.93
2023-04-30T11:21:41.694Z,22.99
2023-04-30T11:24:09.335Z,23.10
2023-04-30T11:26:55.578Z,23.24
2023-04-30T11:29:25.384Z,22.96
2023-04-30T11:31:53.644Z,23.14
2023-04-30T11:34:22.296Z,22.88
2023-04-30T11:36:50.335Z,22.73
2023-04-30T11:39:18.402Z,22.60
2023-04-30T11:41:46.560Z,22.63
2023-04-30T11:44:26.654Z,22.58
2023-04-30T11:46:55.406Z,22.16
2023-04-30T11:49:23.310Z,21.89
2023-04-30T11:51:51.984Z,21.63
2023-04-30T11:54:19.962Z,21.42
2023-04-30T11:56:51.006Z,21.58
2023-04-30T11:59:20.648Z,21.40
2023-04-30T12:01:49.149Z,21.25
2023-04-30T12:04:17.082Z,21.23
2023-04-30T12:06:45.308Z,21.28
2023-04-30T12:09:13.490Z,21.45
2023-04-30T12:11:42.276Z,21.33
2023-04-30T12:14:11.725Z,21.33
2023-04-30T12:16:52.462Z,21.41
2023-04-30T12:19:21.127Z,21.31
2023-04-30T12:21:49.201Z,21.53
2023-04-30T12:24:17.138Z,21.56
2023-04-30T12:26:44.651Z,21.54
2023-04-30T12:29:15.858Z,21.77
2023-04-30T12:31:44.142Z,21.90
2023-04-30T12:34:13.799Z,22.12
2023-04-30T12:36:44.818Z,22.04
2023-04-30T12:39:13.217Z,21.98
2023-04-30T12:41:42.123Z,22.07
2023-04-30T12:44:27.680Z,22.08
2023-04-30T12:46:57.303Z,22.19
2023-04-30T12:49:28.707Z,22.51
2023-04-30T12:52:00.987Z,22.65
2023-04-30T12:54:30.048Z,22.36
2023-04-30T12:56:58.535Z,22.18
2023-04-30T12:59:25.800Z,22.03
2023-04-30T13:01:54.794Z,21.61
2023-04-30T13:04:22.803Z,21.39
2023-04-30T13:06:50.262Z,21.61
2023-04-30T13:09:17.671Z,21.95
2023-04-30T13:11:45.239Z,21.74
2023-04-30T13:14:13.377Z,21.89
2023-04-30T13:16:41.055Z,21.77
2023-04-30T13:19:08.534Z,21.56
2023-04-30T13:21:35.927Z,21.20
2023-04-30T13:24:03.752Z,20.99
2023-04-30T13:26:31.352Z,21.08
2023-04-30T13:28:59.327Z,20.99
2023-04-30T13:31:27.220Z,21.12
2023-04-30T13:33:58.170Z,21.06
2023-04-30T13:36:25.891Z,21.14
2023-04-30T13:38:53.803Z,21.05
2023-04-30T13:41:22.695Z,21.02
2023-04-30T13:43:53.642Z,20.86
2023-04-30T13:46:24.209Z,21.00
2023-04-30T13:48:53.441Z,20.96
2023-04-30T13:51:20.996Z,20.86
2023-04-30T13:53:49.519Z,21.15
2023-04-30T13:56:17.261Z,21.19
2023-04-30T13:58:45.109Z,21.30
2023-04-30T14:01:14.207Z,21.49
2023-04-30T14:03:42.368Z,21.58
2023-04-30T14:06:10.359Z,21.76
2023-04-30T14:08:38.202Z,21.84
2023-04-30T14:11:05.873Z,21.52
2023-04-30T14:13:33.744Z,21.61
2023-04-30T14:16:02.381Z,21.61
2023-04-30T14:18:30.456Z,21.76
2023-04-30T14:21:00.960Z,21.85
2023-04-30T14:23:29.483Z,21.57
2023-04-30T14:25:57.016Z,21.60
2023-04-30T14:28:24.967Z,21.41
2023-04-30T14:30:52.497Z,21.26
2023-04-30T14:33:20.152Z,21.30
2023-04-30T14:35:47.990Z,21.20
2023-04-30T14:38:15.842Z,21.32
2023-04-30T14:40:44.202Z,21.16
2023-04-30T14:43:11.966Z,21.20
2023-04-30T14:45:40.421Z,21.37
2023-04-30T14:48:08.389Z,21.37
2023-04-30T14:50:54.901Z,21.48
2023-04-30T14:53:23.318Z,21.41
2023-04-30T14:55:51.013Z,21.24
2023-04-30T14:58:23.069Z,21.33
2023-04-30T15:00:53.512Z,21.42
2023-04-30T15:03:21.873Z,21.52
2023-04-30T15:05:51.372Z,21.54
2023-04-30T15:08:19.022Z,21.47
2023-04-30T15:10:46.456Z,21.30
2023-04-30T15:13:25.743Z,21.16
2023-04-30T15:15:53.347Z,20.85
2023-04-30T15:18:20.844Z,20.91
2023-04-30T15:20:48.572Z,20.76
2023-04-30T15:23:15.924Z,20.71
2023-04-30T15:25:44.371Z,20.76
2023-04-30T15:28:11.798Z,20.70
2023-04-30T15:30:42.514Z,20.70
2023-04-30T15:33:10.268Z,20.63
2023-04-30T15:35:40.273Z,20.58
2023-04-30T15:38:25.885Z,20.54
2023-04-30T15:40:58.804Z,20.48
2023-04-30T15:43:27.220Z,20.38
2023-04-30T15:45:54.672Z,20.31
2023-04-30T15:48:24.369Z,20.25
2023-04-30T15:50:51.834Z,20.39
2023-04-30T15:53:20.371Z,20.38
2023-04-30T15:55:48.798Z,20.20
2023-04-30T15:58:16.930Z,20.07
2023-04-30T16:00:44.666Z,20.06
2023-04-30T16:03:12.288Z,20.19
2023-04-30T16:05:41.216Z,20.17
2023-04-30T16:08:12.039Z,19.97
2023-04-30T16:15:02.062Z,19.87
2023-04-30T16:17:31.357Z,19.89
2023-04-30T16:22:58.420Z,19.72
2023-04-30T16:25:28.979Z,19.61
2023-04-30T16:27:57.559Z,19.53
2023-04-30T16:30:24.998Z,19.57
2023-04-30T16:32:52.689Z,19.57
2023-04-30T16:35:45.038Z,19.53
2023-04-30T16:38:15.668Z,19.29
2023-04-30T16:40:54.519Z,19.31
2023-04-30T16:43:25.856Z,19.37
2023-04-30T16:46:01.803Z,19.39
2023-04-30T16:48:48.418Z,19.26
2023-04-30T16:51:37.107Z,19.19
2023-04-30T16:57:24.518Z,19.26
2023-04-30T17:00:02.936Z,19.18
2023-04-30T17:02:31.794Z,19.24
2023-04-30T17:05:02.241Z,19.21
2023-04-30T17:07:39.295Z,19.24
2023-04-30T17:10:28.739Z,19.25
2023-04-30T17:13:20.539Z,19.24
2023-04-30T17:15:49.981Z,19.15
2023-04-30T17:18:25.066Z,19.08
2023-04-30T17:21:02.300Z,18.99
2023-04-30T17:23:43.430Z,19.07
2023-04-30T17:26:15.221Z,18.91
2023-04-30T17:28:43.919Z,19.01
2023-04-30T17:31:11.562Z,18.93
2023-04-30T17:33:40.816Z,18.95
2023-04-30T17:36:12.348Z,18.94
2023-04-30T17:38:40.010Z,18.88
2023-04-30T17:41:07.790Z,18.92
2023-04-30T17:43:35.683Z,18.94
2023-04-30T17:46:03.737Z,18.87
2023-04-30T17:49:27.664Z,18.89
2023-04-30T17:51:59.377Z,18.74
2023-04-30T17:54:31.535Z,18.75
2023-04-30T17:57:05.984Z,18.67
2023-04-30T17:59:55.831Z,18.59
2023-04-30T18:02:49.187Z,18.42
2023-04-30T18:08:19.892Z,18.01
2023-04-30T18:10:49.406Z,17.88
2023-04-30T18:13:19.664Z,17.71
2023-04-30T18:15:53.263Z,17.60
2023-04-30T18:18:21.135Z,17.55
2023-04-30T18:20:50.443Z,17.43
2023-04-30T18:23:19.549Z,17.41
2023-04-30T18:25:47.721Z,17.39
2023-04-30T18:28:16.363Z,17.35
2023-04-30T18:30:45.326Z,17.18
2023-04-30T18:33:15.351Z,17.05
2023-04-30T18:35:46.767Z,16.97
2023-04-30T18:38:14.364Z,16.86
2023-04-30T18:40:43.620Z,16.89
2023-04-30T18:43:13.368Z,16.84
2023-04-30T18:45:41.352Z,16.80
2023-04-30T18:48:11.755Z,16.82
2023-04-30T18:50:44.382Z,16.74
2023-04-30T18:53:15.134Z,16.67
2023-04-30T18:55:45.403Z,16.58
2023-04-30T18:58:21.288Z,16.52
2023-04-30T19:00:50.205Z,16.52
2023-04-30T19:03:21.323Z,16.40
2023-04-30T19:06:16.239Z,16.41
2023-04-30T19:08:46.411Z,16.32
2023-04-30T19:11:15.718Z,16.31
2023-04-30T19:13:44.333Z,16.26
2023-04-30T19:16:12.755Z,16.25
2023-04-30T19:18:41.593Z,16.13
2023-04-30T19:21:10.674Z,16.07
2023-04-30T19:23:39.362Z,16.13
2023-04-30T19:26:09.255Z,16.06
2023-04-30T19:28:38.785Z,16.01
2023-04-30T19:31:09.054Z,15.96
2023-04-30T19:33:41.547Z,15.96
2023-04-30T19:36:09.915Z,15.93
2023-04-30T19:38:37.838Z,15.90
2023-04-30T19:41:06.572Z,15.84
2023-04-30T19:43:44.186Z,15.91
2023-04-30T19:46:13.292Z,15.86
2023-04-30T19:48:41.343Z,15.89
2023-04-30T19:51:11.924Z,15.88
2023-04-30T19:53:39.699Z,15.74
2023-04-30T19:56:08.035Z,15.71
2023-04-30T19:58:35.748Z,15.69
2023-04-30T20:01:03.944Z,15.64
2023-04-30T20:03:31.518Z,15.62
2023-04-30T20:05:59.168Z,15.55
2023-04-30T20:08:26.863Z,15.52
2023-04-30T20:10:55.163Z,15.47
2023-04-30T20:13:25.133Z,15.51
2023-04-30T20:15:53.046Z,15.47
2023-04-30T20:18:20.561Z,15.45
2023-04-30T20:20:48.895Z,15.47
2023-04-30T20:23:17.797Z,15.51
2023-04-30T20:25:46.123Z,15.47
2023-04-30T20:28:14.661Z,15.45
2023-04-30T20:30:43.395Z,15.45
2023-04-30T20:33:13.045Z,15.42
2023-04-30T20:35:42.103Z,15.41
2023-04-30T20:38:10.905Z,15.38
2023-04-30T20:40:41.387Z,15.36
2023-04-30T20:43:11.274Z,15.34
2023-04-30T20:45:39.639Z,15.33
2023-04-30T20:48:07.559Z,15.19
2023-04-30T20:50:35.217Z,15.27
2023-04-30T20:53:02.956Z,15.21
2023-04-30T20:55:30.483Z,15.22
2023-04-30T20:57:57.888Z,15.21
2023-04-30T21:00:25.307Z,15.16
2023-04-30T21:02:54.220Z,15.17
2023-04-30T21:05:21.794Z,15.09
2023-04-30T21:07:49.251Z,15.05
2023-04-30T21:10:16.559Z,15.04
2023-04-30T21:12:44.068Z,15.00
2023-04-30T21:17:55.874Z,14.77
2023-04-30T21:20:23.394Z,14.77
2023-04-30T21:22:52.639Z,14.78
2023-04-30T21:25:20.203Z,14.82
2023-04-30T21:27:47.761Z,14.71
2023-04-30T21:30:17.256Z,14.65
2023-04-30T21:32:47.322Z,14.80
2023-04-30T21:35:18.230Z,14.82
2023-04-30T21:37:46.609Z,14.69
2023-04-30T21:40:19.319Z,14.69
2023-04-30T21:42:49.809Z,14.57
2023-04-30T21:45:21.221Z,14.65
2023-04-30T21:48:00.458Z,14.62
2023-04-30T21:50:30.358Z,14.64
2023-04-30T21:52:58.696Z,14.60
2023-04-30T21:55:27.177Z,14.53
2023-04-30T21:57:55.127Z,14.57
2023-04-30T22:00:23.358Z,14.61
2023-04-30T22:02:52.135Z,14.63
2023-04-30T22:05:21.309Z,14.60
2023-04-30T22:07:50.324Z,14.59
2023-04-30T22:10:23.364Z,14.64
2023-04-30T22:15:48.412Z,14.60
2023-04-30T22:18:16.397Z,14.57
2023-04-30T22:20:44.223Z,14.49
2023-04-30T22:23:13.144Z,14.53
2023-04-30T22:25:40.669Z,14.55
2023-04-30T22:28:10.378Z,14.45
2023-04-30T22:30:41.174Z,14.42
2023-04-30T22:33:09.334Z,14.42
2023-04-30T22:35:38.860Z,14.42
2023-04-30T22:38:08.651Z,14.40
2023-04-30T22:41:15.924Z,14.44
2023-04-30T22:43:46.081Z,14.31
2023-04-30T22:46:14.305Z,14.35
2023-04-30T22:48:45.566Z,14.30
2023-04-30T22:51:21.729Z,14.29
2023-04-30T22:53:49.668Z,14.18
2023-04-30T22:56:18.323Z,14.30
2023-04-30T22:58:49.472Z,14.35
2023-04-30T23:01:20.560Z,14.34
2023-04-30T23:03:55.417Z,14.33
2023-04-30T23:07:02.949Z,14.32
2023-04-30T23:09:23.875Z,14.30
2023-04-30T23:11:57.227Z,14.24
2023-04-30T23:14:28.789Z,14.25
2023-04-30T23:16:57.443Z,14.29
2023-04-30T23:19:27.636Z,14.40
2023-04-30T23:21:56.208Z,14.40
2023-04-30T23:24:44.496Z,14.41
2023-04-30T23:27:12.570Z,14.42
2023-04-30T23:29:40.586Z,14.40
2023-04-30T23:32:13.012Z,14.47
2023-04-30T23:34:45.096Z,14.44
2023-04-30T23:37:12.573Z,14.47
2023-04-30T23:39:40.093Z,14.54
2023-04-30T23:42:08.956Z,14.49
2023-04-30T23:44:36.788Z,14.46
2023-04-30T23:47:05.822Z,14.45
2023-04-30T23:49:37.195Z,14.47
2023-04-30T23:52:07.497Z,14.40
2023-04-30T23:54:43.261Z,14.54
2023-04-30T23:57:11.440Z,14.65
2023-04-30T23:59:39.757Z,14.86
